Andrews Air Force Base, MD

11:13 AM EDT on October 31, 2014 (GMT -0400)
Queenswood | Change Station
CLOSE
Current Station
Personal Weather Station
Location: Upper Marlboro, MD
Elevation: 207 ft
Nearby Weather Stations

Elev 207 ft 38.80 °N, 76.84 °W | Updated 5 seconds ago

Overcast
Overcast
51.1 °F
Feels Like 51.1 °F
N
0.0
Wind Variable Wind from East
Gusts 2.0 mph

Today
High -- | Low -- °F
--% Chance of Precip.
Yesterday
High -- | Low -- °F
Precip. -- in
7:33 AM 6:08 PM
First Quarter, 56% visible
Pressure 30.01 in
Visibility 10.0 miles
Clouds Overcast 5500 ft
Dew Point 41 °F
Humidity 69%
Rainfall 0.00 in
Snow Depth Not available.
UV 1 out of 12
Pollen .80 out of 12
Air Quality Not available.
Flu Activity Not available.
METAR KADW 311458Z AUTO 09007KT 10SM OVC055 10/04 A2998 RMK AO2 SLP160 60000 T01030035 58002 $

More Conditions Fewer Conditions

Pressure 30.01 in
Visibility 10.0 miles
Clouds Overcast 5500 ft
Dew Point 41 °F
Humidity 69%
Rainfall 0.00 in
Snow Depth Not available.
UV 1 out of 12
Pollen .80 out of 12
Air Quality Not available.
Flu Activity Not available.
METAR KADW 311458Z AUTO 09007KT 10SM OVC055 10/04 A2998 RMK AO2 SLP160 60000 T01030035 58002 $

More Conditions Fewer Conditions

10-Day Weather Forecast

Almanac

Astronomy

Oct. 31, 2014 Rise Set
Actual Time
Civil Twilight
Nautical Twilight
Astronomical Twilight
Moon
Length of Visible Light
Length of Day
Tomorrow will be .
, % of the Moon is Illuminated

Today's Extremes

State Highs State Lows

Community

WunderPhotos

Upload Photos

1,766,633 photos uploaded!

WunderBlogs® & News

Nearby

Air Quality

  Air Quality AQ Index Pollutant
Not available.

Snow Depth

Station Depth Elevation

Earthquake Activity

City Distance Mag. Time & Date
Minimum magnitude displayed is 2.5.

Coastal Water Temperatures

Place Temperature

Nearby Weather Stations